createdAt,value
2023-02-16T00:04:20.962Z,55.45
2023-02-16T00:09:26.803Z,49.38
2023-02-16T00:14:31.661Z,72.45
2023-02-16T00:19:40.705Z,76.90
2023-02-16T00:24:45.601Z,65.97
2023-02-16T00:29:50.303Z,75.75
2023-02-16T00:34:57.775Z,67.07
2023-02-16T00:40:12.958Z,59.22
2023-02-16T00:45:20.264Z,54.20
2023-02-16T00:50:30.185Z,56.00
2023-02-16T00:55:36.551Z,53.60
2023-02-16T01:00:43.961Z,53.28
2023-02-16T01:06:11.348Z,50.70
2023-02-16T01:11:16.272Z,51.22
2023-02-16T01:16:21.952Z,50.58
2023-02-16T01:21:29.443Z,46.55
2023-02-16T01:26:35.706Z,53.13
2023-02-16T01:31:40.726Z,48.90
2023-02-16T01:36:48.887Z,60.70
2023-02-16T01:42:17.787Z,60.20
2023-02-16T01:47:29.523Z,71.55
2023-02-16T01:52:37.935Z,52.90
2023-02-16T01:57:44.941Z,57.90
2023-02-16T02:02:51.386Z,54.80
2023-02-16T02:08:02.111Z,56.95
2023-02-16T02:13:08.859Z,59.08
2023-02-16T02:18:13.685Z,56.20
2023-02-16T02:23:37.824Z,56.67
2023-02-16T02:28:50.678Z,57.08
2023-02-16T02:33:58.925Z,52.67
2023-02-16T02:39:15.265Z,55.78
2023-02-16T02:44:25.093Z,50.60
2023-02-16T02:49:31.208Z,56.63
2023-02-16T02:54:49.622Z,56.05
2023-02-16T03:00:13.421Z,50.30
2023-02-16T03:05:18.589Z,62.42
2023-02-16T03:10:37.981Z,48.97
2023-02-16T03:15:47.679Z,56.67
2023-02-16T03:21:05.375Z,57.38
2023-02-16T03:26:22.619Z,47.70
2023-02-16T03:31:32.923Z,52.05
2023-02-16T03:41:43.298Z,54.60
2023-02-16T03:46:52.235Z,49.08
2023-02-16T03:51:57.182Z,48.20
2023-02-16T03:57:01.995Z,55.20
2023-02-16T04:02:09.563Z,50.50
2023-02-16T04:07:14.619Z,48.72
2023-02-16T04:12:31.691Z,58.55
2023-02-16T04:17:39.430Z,64.13
2023-02-16T04:22:44.380Z,50.47
2023-02-16T04:27:49.464Z,63.47
2023-02-16T04:32:57.089Z,57.42
2023-02-16T04:38:01.926Z,63.03
2023-02-16T04:43:06.788Z,51.90
2023-02-16T04:48:14.359Z,60.97
2023-02-16T04:53:19.263Z,60.67
2023-02-16T04:58:23.980Z,62.53
2023-02-16T05:03:31.573Z,57.63
2023-02-16T05:08:36.520Z,58.47
2023-02-16T05:13:53.632Z,59.35
2023-02-16T05:19:02.994Z,61.28
2023-02-16T05:24:22.177Z,70.10
2023-02-16T05:29:27.014Z,71.25
2023-02-16T05:34:34.480Z,55.15
2023-02-16T05:39:39.319Z,61.20
2023-02-16T05:44:44.136Z,56.45
2023-02-16T05:49:51.663Z,54.10
2023-02-16T05:54:56.650Z,57.13
2023-02-16T06:00:01.511Z,58.45
2023-02-16T06:05:09.389Z,56.17
2023-02-16T06:10:19.876Z,52.58
2023-02-16T06:15:24.794Z,58.13
2023-02-16T06:20:32.381Z,57.22
2023-02-16T06:25:37.581Z,57.70
2023-02-16T06:30:42.982Z,56.63
2023-02-16T06:35:50.384Z,67.40
2023-02-16T06:40:55.494Z,71.72
2023-02-16T06:46:00.444Z,64.38
2023-02-16T06:51:08.216Z,83.78
2023-02-16T06:56:13.225Z,73.07
2023-02-16T07:01:23.544Z,66.60
2023-02-16T07:11:36.355Z,67.68
2023-02-16T07:16:41.313Z,63.05
2023-02-16T07:21:47.734Z,63.53
2023-02-16T07:26:55.368Z,71.63
2023-02-16T07:32:05.539Z,62.80
2023-02-16T07:37:10.623Z,69.22
2023-02-16T07:42:17.980Z,63.05
2023-02-16T07:47:22.799Z,58.30
2023-02-16T07:52:31.412Z,54.03
2023-02-16T07:57:41.224Z,53.53
2023-02-16T08:02:46.143Z,54.73
2023-02-16T08:07:51.249Z,53.00
2023-02-16T08:13:01.443Z,45.40
2023-02-16T08:18:08.475Z,61.50
2023-02-16T08:23:14.757Z,69.20
2023-02-16T08:28:29.721Z,41.33
2023-02-16T08:33:37.375Z,39.10
2023-02-16T08:38:46.710Z,38.95
2023-02-16T08:43:56.803Z,42.00
2023-02-16T08:49:04.175Z,47.65
2023-02-16T08:54:14.832Z,46.08
2023-02-16T08:59:41.082Z,39.25
2023-02-16T09:04:50.769Z,38.78
2023-02-16T09:09:55.695Z,33.05
2023-02-16T09:15:14.744Z,32.15
2023-02-16T09:20:20.794Z,53.85
2023-02-16T09:25:31.206Z,32.30
2023-02-16T09:30:48.369Z,37.15
2023-02-16T09:35:53.185Z,35.17
2023-02-16T09:41:00.964Z,32.75
2023-02-16T09:46:14.075Z,46.42
2023-02-16T09:51:29.427Z,30.88
2023-02-16T09:56:39.554Z,27.40
2023-02-16T10:01:50.901Z,34.70
2023-02-16T10:07:04.931Z,29.08
2023-02-16T10:12:11.626Z,31.25
2023-02-16T10:17:24.168Z,34.72
2023-02-16T10:22:31.656Z,29.80
2023-02-16T10:27:40.998Z,30.55
2023-02-16T10:32:54.315Z,31.10
2023-02-16T10:49:02.739Z,27.98
2023-02-16T10:54:09.081Z,26.08
2023-02-16T10:59:18.350Z,26.48
2023-02-16T11:04:50.166Z,31.60
2023-02-16T11:10:29.886Z,31.15
2023-02-16T11:21:03.880Z,28.38
2023-02-16T11:26:35.926Z,25.77
2023-02-16T11:31:41.684Z,54.88
2023-02-16T11:43:02.159Z,100.60
2023-02-16T11:48:09.055Z,27.92
2023-02-16T11:53:18.853Z,24.50
2023-02-16T11:58:32.384Z,25.77
2023-02-16T12:03:59.934Z,33.83
2023-02-16T12:15:11.766Z,23.52
2023-02-16T12:20:40.142Z,30.65
2023-02-16T12:26:16.566Z,23.52
2023-02-16T12:31:43.347Z,27.23
2023-02-16T12:36:58.385Z,33.38
2023-02-16T12:42:15.928Z,27.20
2023-02-16T12:47:50.361Z,27.17
2023-02-16T12:52:58.131Z,29.10
2023-02-16T12:58:05.074Z,26.67
2023-02-16T13:03:25.316Z,30.20
2023-02-16T13:13:58.891Z,27.58
2023-02-16T13:19:15.966Z,30.90
2023-02-16T13:24:39.491Z,28.20
2023-02-16T13:30:07.205Z,33.13
2023-02-16T13:35:20.403Z,27.02
2023-02-16T13:40:40.396Z,28.65
2023-02-16T13:45:56.589Z,32.60
2023-02-16T13:51:07.545Z,32.17
2023-02-16T13:56:42.186Z,28.48
2023-02-16T14:07:43.917Z,26.60
2023-02-16T14:25:45.171Z,31.85
2023-02-16T14:36:26.549Z,31.27
2023-02-16T14:41:35.403Z,34.78
2023-02-16T14:46:58.054Z,30.90
2023-02-16T14:52:17.796Z,26.38
2023-02-16T14:57:28.589Z,44.03
2023-02-16T15:02:34.793Z,37.45
2023-02-16T15:07:42.579Z,31.55
2023-02-16T15:12:50.254Z,31.67
2023-02-16T15:17:57.372Z,30.30
2023-02-16T15:23:03.257Z,31.55
2023-02-16T15:28:20.240Z,33.88
2023-02-16T15:33:38.108Z,33.85
2023-02-16T15:38:59.854Z,55.75
2023-02-16T15:44:09.040Z,44.35
2023-02-16T15:49:17.772Z,46.65
2023-02-16T15:54:27.117Z,64.68
2023-02-16T15:59:39.245Z,79.90
2023-02-16T16:04:44.939Z,61.13
2023-02-16T16:09:50.261Z,42.08
2023-02-16T16:14:58.739Z,37.65
2023-02-16T16:20:21.421Z,40.28
2023-02-16T16:25:34.237Z,39.67
2023-02-16T16:31:08.744Z,53.75
2023-02-16T16:36:17.110Z,46.95
2023-02-16T16:41:28.915Z,50.15
2023-02-16T16:46:33.959Z,54.15
2023-02-16T16:51:43.425Z,59.53
2023-02-16T16:56:48.527Z,71.43
2023-02-16T17:01:53.566Z,51.35
2023-02-16T17:07:01.167Z,47.42
2023-02-16T17:12:06.300Z,52.58
2023-02-16T17:17:14.533Z,64.85
2023-02-16T17:22:23.657Z,61.25
2023-02-16T17:32:47.243Z,80.05
2023-02-16T17:37:59.019Z,49.95
2023-02-16T17:43:13.104Z,48.97
2023-02-16T17:48:20.927Z,73.75
2023-02-16T17:53:29.642Z,116.70
2023-02-16T17:58:34.654Z,82.38
2023-02-16T18:03:39.819Z,71.95
2023-02-16T18:08:47.860Z,87.65
2023-02-16T18:13:52.817Z,97.65
2023-02-16T18:18:58.520Z,98.63
2023-02-16T18:24:06.061Z,117.68
2023-02-16T18:29:11.305Z,135.25
2023-02-16T18:34:16.431Z,184.68
2023-02-16T18:39:24.013Z,256.73
2023-02-16T18:44:30.526Z,196.32
2023-02-16T18:49:35.696Z,144.70
2023-02-16T18:54:43.730Z,127.95
2023-02-16T18:59:48.730Z,112.80
2023-02-16T19:04:53.636Z,117.05
2023-02-16T19:10:10.568Z,115.97
2023-02-16T19:15:43.572Z,114.57
2023-02-16T19:20:48.630Z,129.20
2023-02-16T19:25:55.975Z,168.70
2023-02-16T19:31:02.987Z,129.45
2023-02-16T19:36:09.155Z,164.38
2023-02-16T19:41:19.714Z,204.68
2023-02-16T19:46:24.552Z,269.67
2023-02-16T19:51:29.808Z,226.25
2023-02-16T19:56:40.789Z,216.80
2023-02-16T20:01:45.630Z,232.40
2023-02-16T20:06:50.396Z,231.07
2023-02-16T20:11:57.934Z,234.77
2023-02-16T20:17:02.798Z,231.90
2023-02-16T20:22:07.625Z,216.48
2023-02-16T20:27:15.549Z,231.50
2023-02-16T20:38:00.934Z,187.13
2023-02-16T20:48:50.344Z,168.18
2023-02-16T20:53:56.906Z,178.75
2023-02-16T20:59:01.997Z,166.43
2023-02-16T21:04:13.041Z,174.55
2023-02-16T21:09:18.302Z,162.98
2023-02-16T21:14:26.599Z,162.48
2023-02-16T21:19:34.338Z,181.90
2023-02-16T21:24:43.724Z,182.52
2023-02-16T21:35:14.988Z,169.43
2023-02-16T21:40:31.880Z,169.95
2023-02-16T21:45:36.703Z,174.35
2023-02-16T21:50:44.688Z,160.30
2023-02-16T21:56:01.702Z,161.77
2023-02-16T22:01:06.702Z,165.00
2023-02-16T22:06:14.163Z,157.52
2023-02-16T22:11:19.359Z,173.07
2023-02-16T22:16:24.253Z,168.93
2023-02-16T22:21:44.168Z,175.23
2023-02-16T22:26:50.415Z,165.57
2023-02-16T22:31:55.352Z,162.68
2023-02-16T22:37:02.989Z,162.35
2023-02-16T22:42:08.014Z,151.98
2023-02-16T22:47:12.986Z,156.98
2023-02-16T22:52:20.694Z,155.25
2023-02-16T22:57:25.661Z,151.55
2023-02-16T23:02:30.511Z,165.95
2023-02-16T23:07:38.530Z,151.13
2023-02-16T23:12:43.404Z,141.65
2023-02-16T23:17:48.252Z,148.68
2023-02-16T23:22:55.648Z,151.25
2023-02-16T23:28:00.580Z,177.18
2023-02-16T23:33:05.418Z,148.50
2023-02-16T23:43:41.852Z,183.88
2023-02-16T23:48:47.197Z,213.77
2023-02-16T23:53:54.658Z,194.02
2023-02-16T23:59:00.679Z,193.13
